Dover, MN (55929)

10:58 PM CST on January 31, 2015 (GMT -0600)
Altura,MN | Change Station
CLOSE
Current Station
Personal Weather Station
Location: Altura, MN
Elevation: 1165 ft
Nearby Weather Stations

Elev 1165 ft 44.07 °N, 91.94 °W | Updated 5 seconds ago

Snow
Snow
25.0 °F
Feels Like 13 °F
N
15.2
Wind Variable Wind from NE
Gusts 18.3 mph

Today
High -- | Low -- °F
--% Chance of Precip.
Yesterday
High -- | Low -- °F
Precip. -- in
7:27 AM 5:17 PM
Waxing Gibbous, 93% visible
Pressure 30.12 in
Visibility 4.0 miles
Clouds Scattered Clouds 2300 ft
Overcast 2900 ft
Windchill 13 °F
Dew Point 16 °F
Humidity 67%
Rainfall 0.00 in
Snow Depth Not available.
UV 0 out of 12
Pollen .10 out of 12
Air Quality Not available.
Flu Activity Not available.
METAR K9MN 010454Z AUTO 04005KT 4SM SCT023 OVC029 M04/M06 A3012 RMK AO1 T10371061

More Conditions Fewer Conditions

Pressure 30.12 in
Visibility 4.0 miles
Clouds Scattered Clouds 2300 ft
Overcast 2900 ft
Windchill 13 °F
Dew Point 16 °F
Humidity 67%
Rainfall 0.00 in
Snow Depth Not available.
UV 0 out of 12
Pollen .10 out of 12
Air Quality Not available.
Flu Activity Not available.
METAR K9MN 010454Z AUTO 04005KT 4SM SCT023 OVC029 M04/M06 A3012 RMK AO1 T10371061

More Conditions Fewer Conditions

10-Day Weather Forecast

Almanac

Astronomy

Jan. 31, 2015 Rise Set
Actual Time
Civil Twilight
Nautical Twilight
Astronomical Twilight
Moon
Length of Visible Light
Length of Day
Tomorrow will be .
, % of the Moon is Illuminated

Today's Extremes

State Highs State Lows

Community

WunderPhotos

Upload Photos

1,792,313 photos uploaded!

WunderBlogs® & News

Nearby

Air Quality

  Air Quality AQ Index Pollutant
Not available.

Snow Depth

Station Depth Elevation

Earthquake Activity

City Distance Mag. Time & Date
Minimum magnitude displayed is 2.5.

Coastal Water Temperatures

Place Temperature

Nearby Weather Stations